createdAt,value
2022-10-30T00:01:14.354Z,11.80
2022-10-30T00:03:41.429Z,11.80
2022-10-30T00:06:08.746Z,11.80
2022-10-30T00:08:35.868Z,11.80
2022-10-30T00:11:13.398Z,11.70
2022-10-30T00:13:44.176Z,11.70
2022-10-30T00:16:11.578Z,11.70
2022-10-30T00:18:42.147Z,11.70
2022-10-30T00:21:13.339Z,11.70
2022-10-30T00:23:50.489Z,11.70
2022-10-30T00:26:20.163Z,11.70
2022-10-30T00:28:56.398Z,11.70
2022-10-30T00:31:24.242Z,11.60
2022-10-30T00:33:53.751Z,11.60
2022-10-30T00:36:22.585Z,11.60
2022-10-30T00:38:50.011Z,11.60
2022-10-30T00:41:23.865Z,11.60
2022-10-30T00:43:51.902Z,11.60
2022-10-30T00:46:26.005Z,11.50
2022-10-30T00:49:16.714Z,11.60
2022-10-30T00:51:54.458Z,11.50
2022-10-30T00:54:23.706Z,11.50
2022-10-30T00:56:53.164Z,11.50
2022-10-30T00:59:28.399Z,11.50
2022-10-30T01:01:57.329Z,11.50
2022-10-30T01:04:29.091Z,11.40
2022-10-30T01:06:58.949Z,11.40
2022-10-30T01:09:26.715Z,11.50
2022-10-30T01:11:53.782Z,11.40
2022-10-30T01:14:22.050Z,11.40
2022-10-30T01:17:25.673Z,11.40
2022-10-30T01:20:27.457Z,11.30
2022-10-30T01:23:15.446Z,11.40
2022-10-30T01:26:14.357Z,11.40
2022-10-30T01:29:14.045Z,11.40
2022-10-30T01:32:27.118Z,11.40
2022-10-30T01:35:07.813Z,11.30
2022-10-30T01:38:02.222Z,11.20
2022-10-30T01:40:29.699Z,11.20
2022-10-30T01:42:58.513Z,11.30
2022-10-30T01:46:29.790Z,11.30
2022-10-30T01:49:34.543Z,11.30
2022-10-30T01:52:20.432Z,11.40
2022-10-30T01:55:10.320Z,11.40
2022-10-30T01:58:03.473Z,11.40
2022-10-30T02:00:30.605Z,11.40
2022-10-30T02:02:58.290Z,11.40
2022-10-30T02:05:44.002Z,11.40
2022-10-30T02:08:11.283Z,11.30
2022-10-30T02:10:42.398Z,11.30
2022-10-30T02:13:10.926Z,11.30
2022-10-30T02:15:38.929Z,11.30
2022-10-30T02:18:06.254Z,11.30
2022-10-30T02:20:33.710Z,11.30
2022-10-30T02:23:01.574Z,11.20
2022-10-30T02:25:33.388Z,11.30
2022-10-30T02:28:00.472Z,11.20
2022-10-30T02:30:30.220Z,11.20
2022-10-30T02:32:57.726Z,11.20
2022-10-30T02:35:24.941Z,11.10
2022-10-30T02:37:52.608Z,11.20
2022-10-30T02:40:19.624Z,11.00
2022-10-30T02:42:53.453Z,11.00
2022-10-30T02:45:21.327Z,11.00
2022-10-30T02:47:48.607Z,11.00
2022-10-30T02:50:15.747Z,10.90
2022-10-30T02:52:42.955Z,11.00
2022-10-30T02:55:10.328Z,11.00
2022-10-30T02:57:38.572Z,11.00
2022-10-30T03:00:07.264Z,11.00
2022-10-30T03:02:34.622Z,11.10
2022-10-30T03:05:01.754Z,11.10
2022-10-30T03:07:28.890Z,11.10
2022-10-30T03:09:56.002Z,11.00
2022-10-30T03:12:23.301Z,11.10
2022-10-30T03:14:52.392Z,11.20
2022-10-30T03:17:19.449Z,11.10
2022-10-30T03:19:47.577Z,11.10
2022-10-30T03:22:14.573Z,11.00
2022-10-30T03:24:41.672Z,11.10
2022-10-30T03:27:08.765Z,11.10
2022-10-30T03:29:35.800Z,11.10
2022-10-30T03:32:04.574Z,11.10
2022-10-30T03:34:36.534Z,11.10
2022-10-30T03:37:06.472Z,11.10
2022-10-30T03:39:34.244Z,11.10
2022-10-30T03:42:03.140Z,11.10
2022-10-30T03:44:30.769Z,11.00
2022-10-30T03:46:58.607Z,11.00
2022-10-30T03:49:35.485Z,10.90
2022-10-30T03:52:08.463Z,11.00
2022-10-30T03:54:35.864Z,11.00
2022-10-30T03:57:02.924Z,11.10
2022-10-30T03:59:37.646Z,11.00
2022-10-30T04:02:27.189Z,11.00
2022-10-30T04:04:54.236Z,11.00
2022-10-30T04:07:21.340Z,11.00
2022-10-30T04:09:48.322Z,11.00
2022-10-30T04:12:15.749Z,11.10
2022-10-30T04:14:42.819Z,11.10
2022-10-30T04:19:38.157Z,11.10
2022-10-30T04:22:05.368Z,10.90
2022-10-30T04:24:33.333Z,11.10
2022-10-30T04:27:00.443Z,11.10
2022-10-30T04:29:27.680Z,11.10
2022-10-30T04:31:54.781Z,11.10
2022-10-30T04:34:21.941Z,11.10
2022-10-30T04:36:49.066Z,11.10
2022-10-30T04:39:16.497Z,11.10
2022-10-30T04:41:44.293Z,11.10
2022-10-30T04:44:17.577Z,11.10
2022-10-30T04:46:44.808Z,10.90
2022-10-30T04:49:11.838Z,11.00
2022-10-30T04:51:38.899Z,11.10
2022-10-30T04:54:07.692Z,11.10
2022-10-30T04:56:36.294Z,11.10
2022-10-30T04:59:04.668Z,11.00
2022-10-30T05:01:32.172Z,11.00
2022-10-30T05:03:59.417Z,11.00
2022-10-30T05:06:30.566Z,11.00
2022-10-30T05:08:58.325Z,11.00
2022-10-30T05:11:33.349Z,11.00
2022-10-30T05:14:00.347Z,11.00
2022-10-30T05:16:27.390Z,11.10
2022-10-30T05:18:55.587Z,11.10
2022-10-30T05:21:22.633Z,11.10
2022-10-30T05:23:49.843Z,11.10
2022-10-30T05:26:17.652Z,11.10
2022-10-30T05:28:44.675Z,11.10
2022-10-30T05:31:11.731Z,11.00
2022-10-30T05:33:58.647Z,10.90
2022-10-30T05:36:26.841Z,11.00
2022-10-30T05:38:54.347Z,11.00
2022-10-30T05:41:32.241Z,11.00
2022-10-30T05:43:59.292Z,11.00
2022-10-30T05:46:26.706Z,11.00
2022-10-30T05:48:55.200Z,11.00
2022-10-30T05:51:23.420Z,11.00
2022-10-30T05:53:54.626Z,10.90
2022-10-30T05:56:25.425Z,10.90
2022-10-30T05:58:52.545Z,10.80
2022-10-30T06:01:19.825Z,10.80
2022-10-30T06:03:51.147Z,10.80
2022-10-30T06:06:18.379Z,10.80
2022-10-30T06:08:45.551Z,10.70
2022-10-30T06:11:31.294Z,10.70
2022-10-30T06:14:00.170Z,10.70
2022-10-30T06:16:40.621Z,10.70
2022-10-30T06:19:17.447Z,10.60
2022-10-30T06:21:47.336Z,10.60
2022-10-30T06:24:19.142Z,10.60
2022-10-30T06:27:09.219Z,10.60
2022-10-30T06:29:36.287Z,10.60
2022-10-30T06:32:06.552Z,10.60
2022-10-30T06:34:34.312Z,10.60
2022-10-30T06:37:04.337Z,10.50
2022-10-30T06:39:31.433Z,10.50
2022-10-30T06:42:27.624Z,10.50
2022-10-30T06:45:07.042Z,10.50
2022-10-30T06:47:36.100Z,10.50
2022-10-30T06:50:05.999Z,10.50
2022-10-30T06:52:33.068Z,10.50
2022-10-30T06:55:00.907Z,10.40
2022-10-30T06:58:00.385Z,10.40
2022-10-30T07:00:46.205Z,10.40
2022-10-30T07:03:34.585Z,10.40
2022-10-30T07:06:02.266Z,10.30
2022-10-30T07:08:29.538Z,10.30
2022-10-30T07:10:58.718Z,10.30
2022-10-30T07:13:48.700Z,10.30
2022-10-30T07:16:33.699Z,10.40
2022-10-30T07:19:04.469Z,10.30
2022-10-30T07:21:32.532Z,10.40
2022-10-30T07:24:00.640Z,10.40
2022-10-30T07:26:49.723Z,10.40
2022-10-30T07:29:49.117Z,10.20
2022-10-30T07:32:27.573Z,10.40
2022-10-30T07:35:14.929Z,10.40
2022-10-30T07:38:08.394Z,10.40
2022-10-30T07:40:43.782Z,10.40
2022-10-30T07:43:36.435Z,10.40
2022-10-30T07:46:22.063Z,10.50
2022-10-30T07:49:18.473Z,10.50
2022-10-30T07:51:49.954Z,10.50
2022-10-30T07:54:17.716Z,10.60
2022-10-30T07:56:44.763Z,10.60
2022-10-30T07:59:30.300Z,10.70
2022-10-30T08:02:23.422Z,10.70
2022-10-30T08:05:10.640Z,10.80
2022-10-30T08:07:56.441Z,10.80
2022-10-30T08:10:24.091Z,10.80
2022-10-30T08:12:51.224Z,10.80
2022-10-30T08:15:18.375Z,10.90
2022-10-30T08:17:48.954Z,10.90
2022-10-30T08:20:21.281Z,11.00
2022-10-30T08:22:55.257Z,11.00
2022-10-30T08:25:28.820Z,11.10
2022-10-30T08:28:03.508Z,11.00
2022-10-30T08:30:37.551Z,11.10
2022-10-30T08:33:16.494Z,11.10
2022-10-30T08:36:02.433Z,11.10
2022-10-30T08:38:30.065Z,11.20
2022-10-30T08:41:10.421Z,11.20
2022-10-30T08:43:44.186Z,11.30
2022-10-30T08:46:11.262Z,11.30
2022-10-30T08:48:38.340Z,11.30
2022-10-30T08:51:07.131Z,11.40
2022-10-30T08:53:37.807Z,11.40
2022-10-30T08:56:09.993Z,11.50
2022-10-30T08:58:55.131Z,11.50
2022-10-30T09:01:22.759Z,11.60
2022-10-30T09:04:08.875Z,11.60
2022-10-30T09:06:54.327Z,11.60
2022-10-30T09:09:24.214Z,11.70
2022-10-30T09:11:55.776Z,11.70
2022-10-30T09:14:22.982Z,11.80
2022-10-30T09:16:49.966Z,11.90
2022-10-30T09:19:20.025Z,11.90
2022-10-30T09:21:48.434Z,12.10
2022-10-30T09:24:15.469Z,12.10
2022-10-30T09:26:51.725Z,12.20
2022-10-30T09:29:24.046Z,12.30
2022-10-30T09:32:19.756Z,12.30
2022-10-30T09:34:55.528Z,12.40
2022-10-30T09:37:27.341Z,12.50
2022-10-30T09:39:59.427Z,12.60
2022-10-30T09:43:03.436Z,12.80
2022-10-30T09:45:48.661Z,12.90
2022-10-30T09:48:51.541Z,13.00
2022-10-30T09:52:04.705Z,13.10
2022-10-30T09:55:01.442Z,13.10
2022-10-30T09:58:13.986Z,13.20
2022-10-30T10:01:29.081Z,13.40
2022-10-30T10:04:28.215Z,13.50
2022-10-30T10:07:42.893Z,13.60
2022-10-30T10:10:51.910Z,13.70
2022-10-30T10:13:45.721Z,13.80
2022-10-30T10:16:33.431Z,13.90
2022-10-30T10:19:20.476Z,14.00
2022-10-30T10:21:58.710Z,14.20
2022-10-30T10:24:36.759Z,14.40
2022-10-30T10:27:29.814Z,14.60
2022-10-30T10:30:20.253Z,14.80
2022-10-30T10:36:23.874Z,15.00
2022-10-30T10:39:21.736Z,15.00
2022-10-30T10:41:57.482Z,15.10
2022-10-30T10:45:20.008Z,15.20
2022-10-30T10:48:27.655Z,15.30
2022-10-30T10:51:10.758Z,15.40
2022-10-30T10:54:26.937Z,15.60
2022-10-30T10:56:55.887Z,15.70
2022-10-30T10:59:40.385Z,15.70
2022-10-30T11:02:34.675Z,15.80
2022-10-30T11:05:23.182Z,15.90
2022-10-30T11:07:51.500Z,16.00
2022-10-30T11:10:20.675Z,16.10
2022-10-30T11:12:47.850Z,16.20
2022-10-30T11:15:58.227Z,16.40
2022-10-30T11:18:25.522Z,16.50
2022-10-30T11:21:10.528Z,16.70
2022-10-30T11:23:45.286Z,16.80
2022-10-30T11:26:18.540Z,16.90
2022-10-30T11:28:57.706Z,17.00
2022-10-30T11:31:28.573Z,17.10
2022-10-30T11:33:55.815Z,17.20
2022-10-30T11:36:26.147Z,17.30
2022-10-30T11:39:08.818Z,17.40
2022-10-30T11:41:36.175Z,17.50
2022-10-30T11:44:04.728Z,17.60
2022-10-30T11:46:35.498Z,17.80
2022-10-30T11:49:02.778Z,17.90
2022-10-30T11:51:48.101Z,17.90
2022-10-30T11:54:21.801Z,17.90
2022-10-30T11:56:50.806Z,18.00
2022-10-30T11:59:24.761Z,18.00
2022-10-30T12:02:02.194Z,18.10
2022-10-30T12:04:33.028Z,18.10
2022-10-30T12:07:23.078Z,18.10
2022-10-30T12:09:50.414Z,18.20
2022-10-30T12:12:25.662Z,18.30
2022-10-30T12:14:53.625Z,18.40
2022-10-30T12:17:22.973Z,18.50
2022-10-30T12:19:54.208Z,18.60
2022-10-30T12:22:35.854Z,18.70
2022-10-30T12:25:36.400Z,18.80
2022-10-30T12:28:13.296Z,18.90
2022-10-30T12:31:09.690Z,19.00
2022-10-30T12:33:58.793Z,19.10
2022-10-30T12:36:36.159Z,19.20
2022-10-30T12:39:12.453Z,19.30
2022-10-30T12:42:07.424Z,19.40
2022-10-30T12:44:43.063Z,19.40
2022-10-30T12:47:26.831Z,19.50
2022-10-30T12:50:29.972Z,19.50
2022-10-30T12:53:05.428Z,19.50
2022-10-30T12:55:40.096Z,19.60
2022-10-30T12:58:42.056Z,19.60
2022-10-30T13:01:55.986Z,19.70
2022-10-30T13:04:32.118Z,19.70
2022-10-30T13:07:20.071Z,19.80
2022-10-30T13:10:31.090Z,19.90
2022-10-30T13:13:30.174Z,20.00
2022-10-30T13:16:02.362Z,20.10
2022-10-30T13:18:33.824Z,20.10
2022-10-30T13:21:20.440Z,20.20
2022-10-30T13:24:11.053Z,20.20
2022-10-30T13:27:13.671Z,20.20
2022-10-30T13:30:01.531Z,20.30
2022-10-30T13:32:58.754Z,20.30
2022-10-30T13:36:23.134Z,20.40
2022-10-30T13:39:17.171Z,20.50
2022-10-30T13:42:18.356Z,20.60
2022-10-30T13:45:06.563Z,20.70
2022-10-30T13:48:01.046Z,20.80
2022-10-30T13:51:01.212Z,20.80
2022-10-30T13:53:34.127Z,20.90
2022-10-30T13:56:01.491Z,20.90
2022-10-30T13:59:06.015Z,21.00
2022-10-30T14:02:14.809Z,21.10
2022-10-30T14:05:08.559Z,21.10
2022-10-30T14:07:50.399Z,21.20
2022-10-30T14:10:42.831Z,21.20
2022-10-30T14:13:40.849Z,21.30
2022-10-30T14:16:33.176Z,21.30
2022-10-30T14:19:06.955Z,21.30
2022-10-30T14:21:52.082Z,21.30
2022-10-30T14:24:29.304Z,21.40
2022-10-30T14:27:05.820Z,21.40
2022-10-30T14:29:36.086Z,21.40
2022-10-30T14:32:15.161Z,21.30
2022-10-30T14:34:51.724Z,21.40
2022-10-30T14:37:38.650Z,21.30
2022-10-30T14:40:47.388Z,21.30
2022-10-30T14:43:31.361Z,21.30
2022-10-30T14:46:17.449Z,21.20
2022-10-30T14:49:26.298Z,21.20
2022-10-30T14:52:14.571Z,21.10
2022-10-30T14:55:09.642Z,21.10
2022-10-30T14:58:02.981Z,21.10
2022-10-30T15:00:42.891Z,21.00
2022-10-30T15:03:15.618Z,21.00
2022-10-30T15:05:55.291Z,20.90
2022-10-30T15:08:43.415Z,20.80
2022-10-30T15:11:25.407Z,20.80
2022-10-30T15:13:59.062Z,20.70
2022-10-30T15:16:29.319Z,20.70
2022-10-30T15:19:06.408Z,20.60
2022-10-30T15:21:43.045Z,20.50
2022-10-30T15:24:20.223Z,20.30
2022-10-30T15:27:00.938Z,20.30
2022-10-30T15:29:33.980Z,20.20
2022-10-30T15:32:05.096Z,20.00
2022-10-30T15:34:33.623Z,20.00
2022-10-30T15:37:11.070Z,19.80
2022-10-30T15:39:38.163Z,19.80
2022-10-30T15:42:05.665Z,19.60
2022-10-30T15:44:37.804Z,19.50
2022-10-30T15:47:13.900Z,19.40
2022-10-30T15:49:57.175Z,19.30
2022-10-30T15:52:42.902Z,19.20
2022-10-30T15:55:17.406Z,19.10
2022-10-30T15:58:07.624Z,18.90
2022-10-30T16:00:38.016Z,18.80
2022-10-30T16:03:17.875Z,18.70
2022-10-30T16:05:45.368Z,18.60
2022-10-30T16:08:22.588Z,18.50
2022-10-30T16:10:54.125Z,18.30
2022-10-30T16:13:29.939Z,18.20
2022-10-30T16:15:57.457Z,18.10
2022-10-30T16:18:36.002Z,18.00
2022-10-30T16:21:08.557Z,17.90
2022-10-30T16:23:48.896Z,17.70
2022-10-30T16:26:38.044Z,17.60
2022-10-30T16:29:13.949Z,17.50
2022-10-30T16:31:44.409Z,17.40
2022-10-30T16:34:21.820Z,17.30
2022-10-30T16:36:51.077Z,17.20
2022-10-30T16:39:21.276Z,17.10
2022-10-30T16:41:49.102Z,17.00
2022-10-30T16:44:29.362Z,17.00
2022-10-30T16:46:56.382Z,16.90
2022-10-30T16:49:29.077Z,16.90
2022-10-30T16:52:17.174Z,16.80
2022-10-30T16:54:54.595Z,16.70
2022-10-30T16:57:32.427Z,16.70
2022-10-30T17:00:01.617Z,16.60
2022-10-30T17:02:37.023Z,16.60
2022-10-30T17:05:17.945Z,16.50
2022-10-30T17:08:16.917Z,16.50
2022-10-30T17:11:00.360Z,16.40
2022-10-30T17:13:31.025Z,16.30
2022-10-30T17:15:59.421Z,16.30
2022-10-30T17:18:33.668Z,16.20
2022-10-30T17:21:11.736Z,16.10
2022-10-30T17:23:50.742Z,16.10
2022-10-30T17:26:18.995Z,16.00
2022-10-30T17:28:47.956Z,15.90
2022-10-30T17:31:18.015Z,15.90
2022-10-30T17:34:16.660Z,15.90
2022-10-30T17:36:45.776Z,15.80
2022-10-30T17:39:13.230Z,15.70
2022-10-30T17:41:40.539Z,15.70
2022-10-30T17:44:21.103Z,15.60
2022-10-30T17:46:48.314Z,15.50
2022-10-30T17:49:32.379Z,15.50
2022-10-30T17:52:00.017Z,15.40
2022-10-30T17:54:27.097Z,15.40
2022-10-30T17:56:55.126Z,15.30
2022-10-30T17:59:22.111Z,15.30
2022-10-30T18:01:49.321Z,15.20
2022-10-30T18:04:20.663Z,15.20
2022-10-30T18:06:48.421Z,15.10
2022-10-30T18:09:15.687Z,15.10
2022-10-30T18:11:42.809Z,15.00
2022-10-30T18:14:11.727Z,15.00
2022-10-30T18:16:39.352Z,14.90
2022-10-30T18:19:11.265Z,14.90
2022-10-30T18:21:38.400Z,14.80
2022-10-30T18:24:13.038Z,14.80
2022-10-30T18:26:40.906Z,14.70
2022-10-30T18:29:09.610Z,14.70
2022-10-30T18:31:38.061Z,14.70
2022-10-30T18:34:14.016Z,14.60
2022-10-30T18:36:41.118Z,14.60
2022-10-30T18:39:08.179Z,14.50
2022-10-30T18:41:40.807Z,14.50
2022-10-30T18:44:07.956Z,14.40
2022-10-30T18:46:35.112Z,14.40
2022-10-30T18:49:02.234Z,14.30
2022-10-30T18:51:29.598Z,14.20
2022-10-30T18:53:57.199Z,14.30
2022-10-30T18:56:32.487Z,14.30
2022-10-30T18:59:02.064Z,14.20
2022-10-30T19:01:34.398Z,14.20
2022-10-30T19:04:03.916Z,14.20
2022-10-30T19:06:34.336Z,14.10
2022-10-30T19:09:01.830Z,14.10
2022-10-30T19:11:31.866Z,14.10
2022-10-30T19:13:59.843Z,14.10
2022-10-30T19:16:27.701Z,14.00
2022-10-30T19:18:54.967Z,14.00
2022-10-30T19:21:26.247Z,14.00
2022-10-30T19:23:56.146Z,14.00
2022-10-30T19:26:23.206Z,13.90
2022-10-30T19:28:50.247Z,13.90
2022-10-30T19:31:19.313Z,13.80
2022-10-30T19:33:51.436Z,13.80
2022-10-30T19:36:37.109Z,13.80
2022-10-30T19:39:16.743Z,13.80
2022-10-30T19:41:43.776Z,13.70
2022-10-30T19:44:11.112Z,13.70
2022-10-30T19:46:38.269Z,13.70
2022-10-30T19:49:20.337Z,13.60
2022-10-30T19:51:48.027Z,13.60
2022-10-30T19:54:15.212Z,13.60
2022-10-30T19:56:43.964Z,13.50
2022-10-30T19:59:14.393Z,13.50
2022-10-30T20:01:41.850Z,13.50
2022-10-30T20:04:09.200Z,13.40
2022-10-30T20:06:36.280Z,13.40
2022-10-30T20:09:05.459Z,13.40
2022-10-30T20:11:32.512Z,13.30
2022-10-30T20:13:59.540Z,13.30
2022-10-30T20:16:26.677Z,13.30
2022-10-30T20:18:53.762Z,13.20
2022-10-30T20:21:20.827Z,13.20
2022-10-30T20:23:47.944Z,13.20
2022-10-30T20:26:27.848Z,13.10
2022-10-30T20:28:55.383Z,13.10
2022-10-30T20:31:22.916Z,13.10
2022-10-30T20:33:49.961Z,13.00
2022-10-30T20:36:17.198Z,13.00
2022-10-30T20:38:44.471Z,13.00
2022-10-30T20:41:29.184Z,13.00
2022-10-30T20:43:56.201Z,12.90
2022-10-30T20:46:23.308Z,12.90
2022-10-30T20:48:50.371Z,12.90
2022-10-30T20:51:17.532Z,12.80
2022-10-30T20:53:44.749Z,12.80
2022-10-30T20:56:11.925Z,12.80
2022-10-30T20:58:41.271Z,12.80
2022-10-30T21:01:08.467Z,12.70
2022-10-30T21:03:35.605Z,12.70
2022-10-30T21:06:02.776Z,12.70
2022-10-30T21:08:31.914Z,12.70
2022-10-30T21:11:05.397Z,12.70
2022-10-30T21:13:35.077Z,12.60
2022-10-30T21:16:06.402Z,12.60
2022-10-30T21:18:33.587Z,12.50
2022-10-30T21:21:11.686Z,12.50
2022-10-30T21:23:38.903Z,12.40
2022-10-30T21:26:09.714Z,12.40
2022-10-30T21:28:36.809Z,12.40
2022-10-30T21:31:07.888Z,12.40
2022-10-30T21:33:37.158Z,12.30
2022-10-30T21:36:13.328Z,12.30
2022-10-30T21:38:44.737Z,12.30
2022-10-30T21:41:15.909Z,12.30
2022-10-30T21:43:44.063Z,12.20
2022-10-30T21:46:12.760Z,12.20
2022-10-30T21:48:40.455Z,12.20
2022-10-30T21:51:15.334Z,12.20
2022-10-30T21:53:44.080Z,12.10
2022-10-30T21:56:15.695Z,12.10
2022-10-30T21:58:43.376Z,12.00
2022-10-30T22:01:23.870Z,12.00
2022-10-30T22:03:51.493Z,12.00
2022-10-30T22:06:22.045Z,12.00
2022-10-30T22:08:52.761Z,11.90
2022-10-30T22:11:24.934Z,11.80
2022-10-30T22:14:00.718Z,11.80
2022-10-30T22:16:30.281Z,11.80
2022-10-30T22:18:58.814Z,11.80
2022-10-30T22:21:26.419Z,11.70
2022-10-30T22:23:53.645Z,11.70
2022-10-30T22:26:23.447Z,11.70
2022-10-30T22:28:57.153Z,11.60
2022-10-30T22:31:26.521Z,11.60
2022-10-30T22:33:53.869Z,11.50
2022-10-30T22:36:24.939Z,11.50
2022-10-30T22:39:09.839Z,11.50
2022-10-30T22:41:38.271Z,11.40
2022-10-30T22:44:08.784Z,11.40
2022-10-30T22:46:37.173Z,11.30
2022-10-30T22:49:05.329Z,11.30
2022-10-30T22:51:36.358Z,11.30
2022-10-30T22:54:07.103Z,11.30
2022-10-30T22:56:36.279Z,11.20
2022-10-30T22:59:11.127Z,11.20
2022-10-30T23:01:40.039Z,11.20
2022-10-30T23:04:10.664Z,11.20
2022-10-30T23:06:37.946Z,11.20
2022-10-30T23:09:16.389Z,11.10
2022-10-30T23:11:43.548Z,11.20
2022-10-30T23:14:10.621Z,11.10
2022-10-30T23:16:37.760Z,11.00
2022-10-30T23:19:04.838Z,11.00
2022-10-30T23:21:32.668Z,11.00
2022-10-30T23:24:02.278Z,11.00
2022-10-30T23:26:33.544Z,11.00
2022-10-30T23:29:01.710Z,11.00
2022-10-30T23:31:36.828Z,11.00
2022-10-30T23:34:12.110Z,10.90
2022-10-30T23:36:39.639Z,10.90
2022-10-30T23:39:16.151Z,10.90
2022-10-30T23:41:44.247Z,10.80
2022-10-30T23:44:14.368Z,10.80
2022-10-30T23:46:41.887Z,10.80
2022-10-30T23:49:08.960Z,10.70
2022-10-30T23:51:36.099Z,10.80
2022-10-30T23:54:04.011Z,10.70
2022-10-30T23:56:31.378Z,10.80
2022-10-30T23:58:58.622Z,10.60
